sensor_id;sensor_type;location;lat;lon;timestamp;pressure;altitude;pressure_sealevel;temperature;humidity
50349;BME280;36250;48.740;22.174;2023-02-28T00:00:04;101579.66;;;2.33;59.15
50349;BME280;36250;48.740;22.174;2023-02-28T00:02:40;101582.72;;;2.38;59.27
50349;BME280;36250;48.740;22.174;2023-02-28T00:05:07;101575.31;;;2.40;59.47
50349;BME280;36250;48.740;22.174;2023-02-28T00:07:33;101585.72;;;2.35;59.67
50349;BME280;36250;48.740;22.174;2023-02-28T00:09:59;101592.97;;;2.34;59.44
50349;BME280;36250;48.740;22.174;2023-02-28T00:12:24;101588.94;;;2.38;59.92
50349;BME280;36250;48.740;22.174;2023-02-28T00:14:50;101587.78;;;2.41;59.86
50349;BME280;36250;48.740;22.174;2023-02-28T00:17:16;101590.94;;;2.36;59.85
50349;BME280;36250;48.740;22.174;2023-02-28T00:19:43;101582.38;;;2.33;60.16
50349;BME280;36250;48.740;22.174;2023-02-28T00:22:09;101593.59;;;2.28;60.96
50349;BME280;36250;48.740;22.174;2023-02-28T00:24:34;101592.41;;;2.23;60.42
50349;BME280;36250;48.740;22.174;2023-02-28T00:26:59;101595.06;;;2.15;61.34
50349;BME280;36250;48.740;22.174;2023-02-28T00:29:25;101597.41;;;2.10;61.62
50349;BME280;36250;48.740;22.174;2023-02-28T00:31:50;101594.53;;;2.11;61.89
50349;BME280;36250;48.740;22.174;2023-02-28T00:34:16;101590.69;;;2.14;61.19
50349;BME280;36250;48.740;22.174;2023-02-28T00:36:41;101587.50;;;2.10;62.18
50349;BME280;36250;48.740;22.174;2023-02-28T00:39:10;101593.00;;;2.09;60.69
50349;BME280;36250;48.740;22.174;2023-02-28T00:41:35;101592.81;;;2.02;61.02
50349;BME280;36250;48.740;22.174;2023-02-28T00:44:01;101595.66;;;2.00;61.37
50349;BME280;36250;48.740;22.174;2023-02-28T00:46:26;101589.13;;;2.03;61.30
50349;BME280;36250;48.740;22.174;2023-02-28T00:48:51;101595.88;;;2.07;60.38
50349;BME280;36250;48.740;22.174;2023-02-28T00:51:17;101600.59;;;2.13;59.77
50349;BME280;36250;48.740;22.174;2023-02-28T00:53:42;101589.84;;;2.13;58.83
50349;BME280;36250;48.740;22.174;2023-02-28T00:56:07;101596.06;;;2.14;58.18
50349;BME280;36250;48.740;22.174;2023-02-28T00:58:33;101594.06;;;2.16;58.52
50349;BME280;36250;48.740;22.174;2023-02-28T01:00:58;101593.22;;;2.15;58.49
50349;BME280;36250;48.740;22.174;2023-02-28T01:03:24;101590.00;;;2.12;58.47
50349;BME280;36250;48.740;22.174;2023-02-28T01:05:49;101589.03;;;2.13;58.37
50349;BME280;36250;48.740;22.174;2023-02-28T01:08:15;101587.84;;;2.15;58.29
50349;BME280;36250;48.740;22.174;2023-02-28T01:10:41;101591.38;;;2.16;57.83
50349;BME280;36250;48.740;22.174;2023-02-28T01:13:07;101586.84;;;2.16;58.79
50349;BME280;36250;48.740;22.174;2023-02-28T01:15:33;101585.19;;;2.15;58.67
50349;BME280;36250;48.740;22.174;2023-02-28T01:17:58;101581.47;;;2.16;58.29
50349;BME280;36250;48.740;22.174;2023-02-28T01:20:24;101590.56;;;2.15;58.21
50349;BME280;36250;48.740;22.174;2023-02-28T01:22:49;101583.13;;;2.09;58.17
50349;BME280;36250;48.740;22.174;2023-02-28T01:25:15;101590.00;;;2.12;59.47
50349;BME280;36250;48.740;22.174;2023-02-28T01:27:40;101594.41;;;2.13;59.32
50349;BME280;36250;48.740;22.174;2023-02-28T01:30:07;101594.41;;;2.13;59.25
50349;BME280;36250;48.740;22.174;2023-02-28T01:32:33;101596.38;;;2.11;59.33
50349;BME280;36250;48.740;22.174;2023-02-28T01:34:58;101591.19;;;2.09;59.45
50349;BME280;36250;48.740;22.174;2023-02-28T01:37:23;101599.22;;;2.09;59.00
50349;BME280;36250;48.740;22.174;2023-02-28T01:39:49;101597.88;;;2.05;59.78
50349;BME280;36250;48.740;22.174;2023-02-28T01:42:14;101602.09;;;2.08;59.61
50349;BME280;36250;48.740;22.174;2023-02-28T01:45:03;101602.09;;;2.08;59.59
50349;BME280;36250;48.740;22.174;2023-02-28T01:47:38;101596.00;;;2.06;59.27
50349;BME280;36250;48.740;22.174;2023-02-28T01:50:10;101609.31;;;2.07;60.05
50349;BME280;36250;48.740;22.174;2023-02-28T01:52:37;101611.81;;;2.09;59.53
50349;BME280;36250;48.740;22.174;2023-02-28T01:55:04;101616.19;;;2.10;59.92
50349;BME280;36250;48.740;22.174;2023-02-28T01:57:41;101624.06;;;2.11;60.15
50349;BME280;36250;48.740;22.174;2023-02-28T02:00:10;101629.13;;;2.14;59.65
50349;BME280;36250;48.740;22.174;2023-02-28T02:02:38;101632.50;;;2.16;59.66
50349;BME280;36250;48.740;22.174;2023-02-28T02:05:07;101633.84;;;2.20;59.38
50349;BME280;36250;48.740;22.174;2023-02-28T02:07:37;101631.69;;;2.24;59.27
50349;BME280;36250;48.740;22.174;2023-02-28T02:18:46;101635.06;;;2.26;59.72
50349;BME280;36250;48.740;22.174;2023-02-28T02:37:43;101633.31;;;2.09;59.37
50349;BME280;36250;48.740;22.174;2023-02-28T02:40:23;101630.72;;;1.99;60.87
50349;BME280;36250;48.740;22.174;2023-02-28T02:43:00;101634.81;;;1.77;62.99
50349;BME280;36250;48.740;22.174;2023-02-28T02:45:37;101640.97;;;1.70;62.83
50349;BME280;36250;48.740;22.174;2023-02-28T02:48:07;101641.50;;;1.73;62.63
50349;BME280;36250;48.740;22.174;2023-02-28T02:50:40;101634.97;;;1.76;63.27
50349;BME280;36250;48.740;22.174;2023-02-28T02:53:08;101644.22;;;1.81;62.83
50349;BME280;36250;48.740;22.174;2023-02-28T02:55:39;101642.56;;;1.88;61.23
50349;BME280;36250;48.740;22.174;2023-02-28T02:58:10;101649.03;;;1.95;62.24
50349;BME280;36250;48.740;22.174;2023-02-28T03:00:41;101644.34;;;1.97;61.12
50349;BME280;36250;48.740;22.174;2023-02-28T03:03:09;101641.78;;;1.96;60.48
50349;BME280;36250;48.740;22.174;2023-02-28T03:05:45;101645.00;;;1.99;60.42
50349;BME280;36250;48.740;22.174;2023-02-28T03:08:11;101638.97;;;1.97;60.78
50349;BME280;36250;48.740;22.174;2023-02-28T03:10:41;101644.34;;;1.97;60.18
50349;BME280;36250;48.740;22.174;2023-02-28T03:26:44;101651.69;;;1.70;64.54
50349;BME280;36250;48.740;22.174;2023-02-28T03:31:51;101646.88;;;1.73;63.97
50349;BME280;36250;48.740;22.174;2023-02-28T03:34:24;101647.31;;;1.69;64.66
50349;BME280;36250;48.740;22.174;2023-02-28T03:36:57;101644.13;;;1.65;64.38
50349;BME280;36250;48.740;22.174;2023-02-28T03:39:28;101653.69;;;1.68;65.42
50349;BME280;36250;48.740;22.174;2023-02-28T03:42:00;101652.84;;;1.67;65.52
50349;BME280;36250;48.740;22.174;2023-02-28T03:44:54;101657.06;;;1.70;64.67
50349;BME280;36250;48.740;22.174;2023-02-28T03:47:39;101659.91;;;1.68;65.64
50349;BME280;36250;48.740;22.174;2023-02-28T03:50:22;101667.13;;;1.68;66.22
50349;BME280;36250;48.740;22.174;2023-02-28T03:52:57;101656.22;;;1.69;66.95
50349;BME280;36250;48.740;22.174;2023-02-28T03:55:28;101655.84;;;1.64;66.83
50349;BME280;36250;48.740;22.174;2023-02-28T04:00:34;101650.44;;;1.56;68.71
50349;BME280;36250;48.740;22.174;2023-02-28T04:03:01;101654.41;;;1.52;68.60
50349;BME280;36250;48.740;22.174;2023-02-28T04:05:27;101652.75;;;1.51;69.18
50349;BME280;36250;48.740;22.174;2023-02-28T04:07:53;101663.63;;;1.50;68.92
50349;BME280;36250;48.740;22.174;2023-02-28T04:10:19;101647.38;;;1.51;69.34
50349;BME280;36250;48.740;22.174;2023-02-28T04:12:45;101652.41;;;1.54;68.97
50349;BME280;36250;48.740;22.174;2023-02-28T04:15:10;101654.97;;;1.56;69.56
50349;BME280;36250;48.740;22.174;2023-02-28T04:17:36;101654.09;;;1.55;69.72
50349;BME280;36250;48.740;22.174;2023-02-28T04:20:03;101664.00;;;1.55;69.03
50349;BME280;36250;48.740;22.174;2023-02-28T04:22:28;101666.53;;;1.56;69.11
50349;BME280;36250;48.740;22.174;2023-02-28T04:24:54;101663.31;;;1.53;69.61
50349;BME280;36250;48.740;22.174;2023-02-28T04:27:20;101664.63;;;1.49;69.83
50349;BME280;36250;48.740;22.174;2023-02-28T04:29:46;101671.16;;;1.46;69.49
50349;BME280;36250;48.740;22.174;2023-02-28T04:32:11;101679.34;;;1.45;68.90
50349;BME280;36250;48.740;22.174;2023-02-28T04:34:37;101673.28;;;1.43;69.62
50349;BME280;36250;48.740;22.174;2023-02-28T04:37:03;101671.16;;;1.46;69.46
50349;BME280;36250;48.740;22.174;2023-02-28T04:39:29;101677.19;;;1.48;69.14
50349;BME280;36250;48.740;22.174;2023-02-28T04:41:54;101676.50;;;1.46;68.96
50349;BME280;36250;48.740;22.174;2023-02-28T04:44:20;101671.75;;;1.40;69.36
50349;BME280;36250;48.740;22.174;2023-02-28T04:46:47;101674.13;;;1.43;69.39
50349;BME280;36250;48.740;22.174;2023-02-28T04:49:13;101678.34;;;1.46;69.43
50349;BME280;36250;48.740;22.174;2023-02-28T04:51:39;101675.38;;;1.49;69.56
50349;BME280;36250;48.740;22.174;2023-02-28T04:54:05;101669.66;;;1.52;69.27
50349;BME280;36250;48.740;22.174;2023-02-28T04:56:30;101670.31;;;1.46;69.06
50349;BME280;36250;48.740;22.174;2023-02-28T04:58:56;101665.72;;;1.38;70.01
50349;BME280;36250;48.740;22.174;2023-02-28T05:01:26;101667.72;;;1.36;69.70
50349;BME280;36250;48.740;22.174;2023-02-28T05:03:55;101665.03;;;1.36;70.15
50349;BME280;36250;48.740;22.174;2023-02-28T05:06:22;101665.72;;;1.38;70.16
50349;BME280;36250;48.740;22.174;2023-02-28T05:08:49;101664.47;;;1.32;70.74
50349;BME280;36250;48.740;22.174;2023-02-28T05:11:27;101663.41;;;1.25;70.92
50349;BME280;36250;48.740;22.174;2023-02-28T05:13:54;101662.91;;;1.22;70.77
50349;BME280;36250;48.740;22.174;2023-02-28T05:16:20;101668.56;;;1.19;71.25
50349;BME280;36250;48.740;22.174;2023-02-28T05:18:46;101673.94;;;1.19;70.71
50349;BME280;36250;48.740;22.174;2023-02-28T05:21:24;101674.91;;;1.18;70.78
50349;BME280;36250;48.740;22.174;2023-02-28T05:23:50;101677.59;;;1.18;71.59
50349;BME280;36250;48.740;22.174;2023-02-28T05:26:15;101683.34;;;1.23;71.50
50349;BME280;36250;48.740;22.174;2023-02-28T05:28:41;101679.38;;;1.27;71.54
50349;BME280;36250;48.740;22.174;2023-02-28T05:31:07;101678.06;;;1.31;70.89
50349;BME280;36250;48.740;22.174;2023-02-28T05:33:32;101687.16;;;1.38;71.56
50349;BME280;36250;48.740;22.174;2023-02-28T05:35:58;101683.16;;;1.42;70.99
50349;BME280;36250;48.740;22.174;2023-02-28T05:38:23;101689.25;;;1.44;70.93
50349;BME280;36250;48.740;22.174;2023-02-28T05:40:48;101688.22;;;1.45;71.20
50349;BME280;36250;48.740;22.174;2023-02-28T05:43:14;101701.34;;;1.48;71.30
50349;BME280;36250;48.740;22.174;2023-02-28T05:45:39;101704.41;;;1.53;71.53
50349;BME280;36250;48.740;22.174;2023-02-28T05:48:05;101696.88;;;1.57;70.68
50349;BME280;36250;48.740;22.174;2023-02-28T05:50:30;101703.38;;;1.54;70.21
50349;BME280;36250;48.740;22.174;2023-02-28T05:52:55;101698.03;;;1.54;69.96
50349;BME280;36250;48.740;22.174;2023-02-28T05:55:21;101706.00;;;1.64;70.04
50349;BME280;36250;48.740;22.174;2023-02-28T05:57:46;101705.84;;;1.65;71.12
50349;BME280;36250;48.740;22.174;2023-02-28T06:00:12;101702.84;;;1.68;70.76
50349;BME280;36250;48.740;22.174;2023-02-28T06:02:40;101711.59;;;1.70;70.98
50349;BME280;36250;48.740;22.174;2023-02-28T06:05:12;101714.94;;;1.72;70.56
50349;BME280;36250;48.740;22.174;2023-02-28T06:07:38;101702.53;;;1.71;70.29
50349;BME280;36250;48.740;22.174;2023-02-28T06:10:04;101706.97;;;1.80;70.49
50349;BME280;36250;48.740;22.174;2023-02-28T06:12:29;101702.97;;;1.84;70.80
50349;BME280;36250;48.740;22.174;2023-02-28T06:14:54;101704.97;;;1.82;70.66
50349;BME280;36250;48.740;22.174;2023-02-28T06:17:20;101707.34;;;1.85;69.89
50349;BME280;36250;48.740;22.174;2023-02-28T06:19:45;101712.25;;;1.90;69.81
50349;BME280;36250;48.740;22.174;2023-02-28T06:22:10;101708.78;;;1.97;70.67
50349;BME280;36250;48.740;22.174;2023-02-28T06:24:36;101712.13;;;1.99;70.42
50349;BME280;36250;48.740;22.174;2023-02-28T06:27:01;101719.16;;;2.00;70.21
50349;BME280;36250;48.740;22.174;2023-02-28T06:29:31;101725.75;;;2.06;70.23
50349;BME280;36250;48.740;22.174;2023-02-28T06:31:57;101728.75;;;2.03;70.06
50349;BME280;36250;48.740;22.174;2023-02-28T06:34:22;101719.88;;;2.03;70.46
50349;BME280;36250;48.740;22.174;2023-02-28T06:36:50;101717.03;;;2.04;69.76
50349;BME280;36250;48.740;22.174;2023-02-28T06:39:16;101720.25;;;2.08;69.50
50349;BME280;36250;48.740;22.174;2023-02-28T06:41:41;101720.38;;;2.06;69.27
50349;BME280;36250;48.740;22.174;2023-02-28T06:44:16;101716.56;;;2.09;69.35
50349;BME280;36250;48.740;22.174;2023-02-28T06:46:44;101720.28;;;2.16;69.30
50349;BME280;36250;48.740;22.174;2023-02-28T06:49:10;101719.66;;;2.22;69.53
50349;BME280;36250;48.740;22.174;2023-02-28T06:51:38;101717.38;;;2.35;69.05
50349;BME280;36250;48.740;22.174;2023-02-28T06:54:04;101714.53;;;2.36;68.10
50349;BME280;36250;48.740;22.174;2023-02-28T06:56:29;101722.78;;;2.43;67.49
50349;BME280;36250;48.740;22.174;2023-02-28T06:58:55;101720.94;;;2.43;66.54
50349;BME280;36250;48.740;22.174;2023-02-28T07:01:21;101721.13;;;2.50;67.23
50349;BME280;36250;48.740;22.174;2023-02-28T07:03:48;101715.13;;;2.56;67.04
50349;BME280;36250;48.740;22.174;2023-02-28T07:06:20;101723.50;;;2.53;68.08
50349;BME280;36250;48.740;22.174;2023-02-28T07:08:47;101722.19;;;2.57;67.40
50349;BME280;36250;48.740;22.174;2023-02-28T07:11:13;101725.75;;;2.65;67.56
50349;BME280;36250;48.740;22.174;2023-02-28T07:13:38;101726.78;;;2.73;67.41
50349;BME280;36250;48.740;22.174;2023-02-28T07:16:05;101725.09;;;2.72;65.88
50349;BME280;36250;48.740;22.174;2023-02-28T07:18:31;101723.28;;;2.80;66.33
50349;BME280;36250;48.740;22.174;2023-02-28T07:20:57;101724.16;;;2.81;66.66
50349;BME280;36250;48.740;22.174;2023-02-28T07:23:23;101723.28;;;2.80;65.50
50349;BME280;36250;48.740;22.174;2023-02-28T07:25:50;101731.72;;;2.85;66.06
50349;BME280;36250;48.740;22.174;2023-02-28T07:28:15;101727.03;;;2.95;65.53
50349;BME280;36250;48.740;22.174;2023-02-28T07:30:41;101730.44;;;3.13;65.50
50349;BME280;36250;48.740;22.174;2023-02-28T07:33:06;101723.06;;;3.23;63.67
50349;BME280;36250;48.740;22.174;2023-02-28T07:35:32;101727.13;;;3.27;63.42
50349;BME280;36250;48.740;22.174;2023-02-28T07:37:58;101720.41;;;3.31;62.96
50349;BME280;36250;48.740;22.174;2023-02-28T07:40:24;101709.31;;;3.35;61.05
50349;BME280;36250;48.740;22.174;2023-02-28T07:42:49;101727.13;;;3.36;60.37
50349;BME280;36250;48.740;22.174;2023-02-28T07:45:15;101721.22;;;3.40;60.25
50349;BME280;36250;48.740;22.174;2023-02-28T07:47:41;101721.09;;;3.58;60.96
50349;BME280;36250;48.740;22.174;2023-02-28T07:50:09;101722.94;;;3.73;59.72
50349;BME280;36250;48.740;22.174;2023-02-28T07:52:36;101720.94;;;3.75;59.90
50349;BME280;36250;48.740;22.174;2023-02-28T07:55:02;101724.81;;;3.73;58.66
50349;BME280;36250;48.740;22.174;2023-02-28T07:57:27;101726.16;;;3.61;58.85
50349;BME280;36250;48.740;22.174;2023-02-28T07:59:53;101723.78;;;3.58;58.69
50349;BME280;36250;48.740;22.174;2023-02-28T08:02:18;101721.41;;;3.55;58.75
50349;BME280;36250;48.740;22.174;2023-02-28T08:04:45;101720.44;;;3.64;59.00
50349;BME280;36250;48.740;22.174;2023-02-28T08:07:12;101716.72;;;3.65;58.81
50349;BME280;36250;48.740;22.174;2023-02-28T08:09:39;101720.91;;;3.67;59.55
50349;BME280;36250;48.740;22.174;2023-02-28T08:12:05;101720.41;;;3.80;60.63
50349;BME280;36250;48.740;22.174;2023-02-28T08:14:31;101723.09;;;3.80;62.22
50349;BME280;36250;48.740;22.174;2023-02-28T08:16:56;101722.78;;;3.75;63.37
50349;BME280;36250;48.740;22.174;2023-02-28T08:19:21;101727.31;;;3.82;62.37
50349;BME280;36250;48.740;22.174;2023-02-28T08:21:47;101726.13;;;3.85;62.82
50349;BME280;36250;48.740;22.174;2023-02-28T08:24:12;101724.09;;;3.87;63.19
50349;BME280;36250;48.740;22.174;2023-02-28T08:26:37;101719.72;;;3.94;62.33
50349;BME280;36250;48.740;22.174;2023-02-28T08:29:03;101725.81;;;3.96;61.72
50349;BME280;36250;48.740;22.174;2023-02-28T08:31:28;101724.78;;;3.97;61.23
50349;BME280;36250;48.740;22.174;2023-02-28T08:33:53;101724.44;;;4.00;61.29
50349;BME280;36250;48.740;22.174;2023-02-28T08:36:22;101725.59;;;4.14;61.10
50349;BME280;36250;48.740;22.174;2023-02-28T08:38:48;101729.78;;;4.24;60.82
50349;BME280;36250;48.740;22.174;2023-02-28T08:41:14;101730.78;;;4.39;59.68
50349;BME280;36250;48.740;22.174;2023-02-28T08:43:40;101728.53;;;4.51;59.57
50349;BME280;36250;48.740;22.174;2023-02-28T08:46:06;101724.28;;;4.64;60.07
50349;BME280;36250;48.740;22.174;2023-02-28T08:48:33;101728.41;;;4.83;58.43
50349;BME280;36250;48.740;22.174;2023-02-28T08:51:03;101724.84;;;4.91;58.30
50349;BME280;36250;48.740;22.174;2023-02-28T08:53:29;101725.47;;;5.01;56.77
50349;BME280;36250;48.740;22.174;2023-02-28T08:56:06;101723.97;;;5.21;57.95
50349;BME280;36250;48.740;22.174;2023-02-28T08:58:32;101724.81;;;5.21;55.71
50349;BME280;36250;48.740;22.174;2023-02-28T09:00:59;101724.16;;;5.19;56.00
50349;BME280;36250;48.740;22.174;2023-02-28T09:03:25;101722.53;;;5.33;56.58
50349;BME280;36250;48.740;22.174;2023-02-28T09:05:56;101722.50;;;5.41;55.91
50349;BME280;36250;48.740;22.174;2023-02-28T09:08:27;101729.16;;;5.53;56.56
50349;BME280;36250;48.740;22.174;2023-02-28T09:10:54;101729.47;;;5.58;56.29
50349;BME280;36250;48.740;22.174;2023-02-28T09:13:22;101724.06;;;5.58;56.69
50349;BME280;36250;48.740;22.174;2023-02-28T09:15:47;101724.66;;;5.68;55.87
50349;BME280;36250;48.740;22.174;2023-02-28T09:18:13;101726.34;;;5.69;56.31
50349;BME280;36250;48.740;22.174;2023-02-28T09:20:40;101732.97;;;5.67;56.05
50349;BME280;36250;48.740;22.174;2023-02-28T09:23:10;101732.75;;;5.68;56.74
50349;BME280;36250;48.740;22.174;2023-02-28T09:25:36;101733.06;;;5.73;56.40
50349;BME280;36250;48.740;22.174;2023-02-28T09:28:03;101735.13;;;5.71;56.98
50349;BME280;36250;48.740;22.174;2023-02-28T09:30:28;101729.72;;;5.71;56.47
50349;BME280;36250;48.740;22.174;2023-02-28T09:32:54;101733.25;;;5.72;56.18
50349;BME280;36250;48.740;22.174;2023-02-28T09:35:21;101729.78;;;5.86;56.34
50349;BME280;36250;48.740;22.174;2023-02-28T09:37:51;101734.75;;;5.97;55.89
50349;BME280;36250;48.740;22.174;2023-02-28T09:40:20;101725.72;;;6.05;55.17
50349;BME280;36250;48.740;22.174;2023-02-28T09:42:49;101728.00;;;6.16;55.34
50349;BME280;36250;48.740;22.174;2023-02-28T09:45:23;101727.88;;;6.09;55.05
50349;BME280;36250;48.740;22.174;2023-02-28T09:47:50;101737.41;;;6.20;55.69
50349;BME280;36250;48.740;22.174;2023-02-28T09:52:52;101732.34;;;6.17;53.81
50349;BME280;36250;48.740;22.174;2023-02-28T09:55:37;101725.38;;;6.22;53.51
50349;BME280;36250;48.740;22.174;2023-02-28T09:58:05;101723.53;;;6.37;54.14
50349;BME280;36250;48.740;22.174;2023-02-28T10:00:37;101719.97;;;6.37;53.77
50349;BME280;36250;48.740;22.174;2023-02-28T10:03:24;101727.81;;;6.46;53.14
50349;BME280;36250;48.740;22.174;2023-02-28T10:06:07;101722.97;;;6.56;52.07
50349;BME280;36250;48.740;22.174;2023-02-28T10:08:57;101725.38;;;6.81;53.07
50349;BME280;36250;48.740;22.174;2023-02-28T10:11:25;101712.09;;;7.00;52.05
50349;BME280;36250;48.740;22.174;2023-02-28T10:14:01;101712.44;;;7.12;51.63
50349;BME280;36250;48.740;22.174;2023-02-28T10:19:33;101719.13;;;7.31;50.85
50349;BME280;36250;48.740;22.174;2023-02-28T10:22:13;101711.25;;;7.36;50.66
50349;BME280;36250;48.740;22.174;2023-02-28T10:24:45;101710.09;;;7.45;50.53
50349;BME280;36250;48.740;22.174;2023-02-28T10:27:26;101696.44;;;7.53;50.20
50349;BME280;36250;48.740;22.174;2023-02-28T10:29:56;101699.84;;;7.61;50.35
50349;BME280;36250;48.740;22.174;2023-02-28T10:34:53;101694.50;;;7.95;49.24
50349;BME280;36250;48.740;22.174;2023-02-28T10:37:20;101684.84;;;8.14;48.15
50349;BME280;36250;48.740;22.174;2023-02-28T10:39:46;101683.44;;;8.25;47.54
50349;BME280;36250;48.740;22.174;2023-02-28T10:42:27;101682.50;;;8.39;47.03
50349;BME280;36250;48.740;22.174;2023-02-28T10:47:41;101677.66;;;8.69;48.10
50349;BME280;36250;48.740;22.174;2023-02-28T10:50:43;101679.34;;;8.70;47.08
50349;BME280;36250;48.740;22.174;2023-02-28T10:58:30;101668.72;;;8.75;46.77
50349;BME280;36250;48.740;22.174;2023-02-28T11:00:57;101661.06;;;8.91;47.38
50349;BME280;36250;48.740;22.174;2023-02-28T11:05:50;101651.13;;;9.44;44.88
50349;BME280;36250;48.740;22.174;2023-02-28T11:08:16;101652.84;;;9.58;45.82
50349;BME280;36250;48.740;22.174;2023-02-28T11:10:47;101638.81;;;9.74;44.32
50349;BME280;36250;48.740;22.174;2023-02-28T11:13:17;101640.91;;;9.99;45.12
50349;BME280;36250;48.740;22.174;2023-02-28T11:15:51;101640.28;;;9.97;43.55
50349;BME280;36250;48.740;22.174;2023-02-28T11:18:23;101632.56;;;9.61;45.96
50349;BME280;36250;48.740;22.174;2023-02-28T11:20:53;101621.66;;;9.87;45.22
50349;BME280;36250;48.740;22.174;2023-02-28T11:23:20;101631.09;;;9.98;43.81
50349;BME280;36250;48.740;22.174;2023-02-28T11:25:51;101625.22;;;9.94;43.70
50349;BME280;36250;48.740;22.174;2023-02-28T11:28:33;101622.09;;;9.77;43.00
50349;BME280;36250;48.740;22.174;2023-02-28T11:33:50;101621.06;;;9.52;44.26
50349;BME280;36250;48.740;22.174;2023-02-28T11:36:24;101614.59;;;9.53;42.75
50349;BME280;36250;48.740;22.174;2023-02-28T11:38:51;101619.16;;;9.72;44.41
50349;BME280;36250;48.740;22.174;2023-02-28T11:41:36;101613.06;;;10.10;43.72
50349;BME280;36250;48.740;22.174;2023-02-28T11:47:42;101606.28;;;10.89;43.62
50349;BME280;36250;48.740;22.174;2023-02-28T11:52:55;101609.44;;;11.17;40.96
50349;BME280;36250;48.740;22.174;2023-02-28T11:55:32;101602.28;;;10.92;41.39
50349;BME280;36250;48.740;22.174;2023-02-28T12:06:13;101594.13;;;11.48;40.00
50349;BME280;36250;48.740;22.174;2023-02-28T12:19:27;101583.47;;;10.46;43.10
50349;BME280;36250;48.740;22.174;2023-02-28T12:24:47;101588.28;;;10.44;44.65
50349;BME280;36250;48.740;22.174;2023-02-28T12:27:19;101588.34;;;10.24;44.98
50349;BME280;36250;48.740;22.174;2023-02-28T12:32:54;101581.47;;;10.02;46.47
50349;BME280;36250;48.740;22.174;2023-02-28T12:35:28;101587.13;;;10.14;46.16
50349;BME280;36250;48.740;22.174;2023-02-28T12:40:33;101575.00;;;11.54;43.96
50349;BME280;36250;48.740;22.174;2023-02-28T12:43:07;101571.91;;;11.94;41.55
50349;BME280;36250;48.740;22.174;2023-02-28T12:48:06;101560.78;;;13.85;38.72
50349;BME280;36250;48.740;22.174;2023-02-28T12:50:33;101555.59;;;15.64;34.91
50349;BME280;36250;48.740;22.174;2023-02-28T12:53:06;101555.63;;;17.80;30.97
50349;BME280;36250;48.740;22.174;2023-02-28T12:55:49;101549.78;;;20.36;28.59
50349;BME280;36250;48.740;22.174;2023-02-28T13:07:05;101548.63;;;22.73;23.80
50349;BME280;36250;48.740;22.174;2023-02-28T13:09:37;101538.00;;;23.18;23.01
50349;BME280;36250;48.740;22.174;2023-02-28T13:12:13;101544.22;;;20.95;25.33
50349;BME280;36250;48.740;22.174;2023-02-28T13:14:39;101553.38;;;18.18;27.70
50349;BME280;36250;48.740;22.174;2023-02-28T13:19:39;101554.06;;;16.28;31.42
50349;BME280;36250;48.740;22.174;2023-02-28T13:22:19;101555.50;;;14.30;33.98
50349;BME280;36250;48.740;22.174;2023-02-28T13:24:57;101561.66;;;13.21;36.38
50349;BME280;36250;48.740;22.174;2023-02-28T13:29:52;101568.66;;;11.36;42.05
50349;BME280;36250;48.740;22.174;2023-02-28T13:37:35;101571.22;;;9.91;46.09
50349;BME280;36250;48.740;22.174;2023-02-28T13:45:29;101578.41;;;9.33;46.62
50349;BME280;36250;48.740;22.174;2023-02-28T13:55:30;101565.19;;;8.91;49.42
50349;BME280;36250;48.740;22.174;2023-02-28T13:58:09;101557.06;;;9.10;48.93
50349;BME280;36250;48.740;22.174;2023-02-28T14:00:46;101558.53;;;9.13;49.05
50349;BME280;36250;48.740;22.174;2023-02-28T14:06:08;101555.81;;;9.39;49.08
50349;BME280;36250;48.740;22.174;2023-02-28T14:08:35;101560.44;;;9.19;50.01
50349;BME280;36250;48.740;22.174;2023-02-28T14:11:15;101556.19;;;8.90;50.41
50349;BME280;36250;48.740;22.174;2023-02-28T14:13:48;101552.84;;;8.75;50.16
50349;BME280;36250;48.740;22.174;2023-02-28T14:16:17;101554.44;;;8.56;50.46
50349;BME280;36250;48.740;22.174;2023-02-28T14:19:04;101559.00;;;8.49;50.88
50349;BME280;36250;48.740;22.174;2023-02-28T14:21:38;101549.06;;;8.70;50.22
50349;BME280;36250;48.740;22.174;2023-02-28T14:27:00;101552.13;;;8.53;50.77
50349;BME280;36250;48.740;22.174;2023-02-28T14:37:38;101529.09;;;13.08;41.35
50349;BME280;36250;48.740;22.174;2023-02-28T14:40:12;101543.13;;;11.98;42.61
50349;BME280;36250;48.740;22.174;2023-02-28T14:42:39;101535.41;;;10.65;43.83
50349;BME280;36250;48.740;22.174;2023-02-28T14:45:19;101546.19;;;9.69;46.66
50349;BME280;36250;48.740;22.174;2023-02-28T14:47:45;101551.59;;;8.91;48.95
50349;BME280;36250;48.740;22.174;2023-02-28T14:50:38;101547.34;;;8.55;49.80
50349;BME280;36250;48.740;22.174;2023-02-28T14:53:03;101556.47;;;8.41;50.60
50349;BME280;36250;48.740;22.174;2023-02-28T14:55:34;101549.47;;;8.19;51.50
50349;BME280;36250;48.740;22.174;2023-02-28T14:58:02;101550.88;;;8.09;51.65
50349;BME280;36250;48.740;22.174;2023-02-28T15:00:36;101559.16;;;7.94;51.94
50349;BME280;36250;48.740;22.174;2023-02-28T15:03:34;101561.56;;;7.82;52.72
50349;BME280;36250;48.740;22.174;2023-02-28T15:06:19;101550.66;;;7.69;52.77
50349;BME280;36250;48.740;22.174;2023-02-28T15:08:45;101554.75;;;7.59;53.30
50349;BME280;36250;48.740;22.174;2023-02-28T15:11:16;101564.44;;;7.47;54.12
50349;BME280;36250;48.740;22.174;2023-02-28T15:13:49;101561.25;;;7.37;54.71
50349;BME280;36250;48.740;22.174;2023-02-28T15:16:26;101558.28;;;7.32;54.63
50349;BME280;36250;48.740;22.174;2023-02-28T15:18:56;101555.31;;;7.26;54.68
50349;BME280;36250;48.740;22.174;2023-02-28T15:21:30;101557.78;;;7.21;55.13
50349;BME280;36250;48.740;22.174;2023-02-28T15:26:42;101565.41;;;7.11;55.87
50349;BME280;36250;48.740;22.174;2023-02-28T15:29:17;101570.38;;;7.08;56.01